createdAt,value
2022-11-04T00:00:58.122Z,954.16
2022-11-04T00:01:58.076Z,954.20
2022-11-04T00:02:57.987Z,954.25
2022-11-04T00:03:57.944Z,954.28
2022-11-04T00:04:57.881Z,954.18
2022-11-04T00:05:57.833Z,954.20
2022-11-04T00:06:57.773Z,954.16
2022-11-04T00:07:57.727Z,954.12
2022-11-04T00:08:57.659Z,954.19
2022-11-04T00:09:57.621Z,954.12
2022-11-04T00:10:57.550Z,954.20
2022-11-04T00:11:57.492Z,954.25
2022-11-04T00:12:57.442Z,954.20
2022-11-04T00:13:57.385Z,954.27
2022-11-04T00:14:57.345Z,954.30
2022-11-04T00:15:57.276Z,954.34
2022-11-04T00:16:57.238Z,954.33
2022-11-04T00:17:57.170Z,954.41
2022-11-04T00:18:57.119Z,954.31
2022-11-04T00:19:57.075Z,954.44
2022-11-04T00:20:57.006Z,954.50
2022-11-04T00:21:56.964Z,954.58
2022-11-04T00:22:56.895Z,954.56
2022-11-04T00:23:56.845Z,954.65
2022-11-04T00:24:56.808Z,954.68
2022-11-04T00:25:56.737Z,954.72
2022-11-04T00:26:56.678Z,954.66
2022-11-04T00:27:56.626Z,954.75
2022-11-04T00:28:56.583Z,954.70
2022-11-04T00:29:56.531Z,954.67
2022-11-04T00:30:56.458Z,954.66
2022-11-04T00:31:56.406Z,954.60
2022-11-04T00:32:56.352Z,954.60
2022-11-04T00:33:56.306Z,954.67
2022-11-04T00:34:56.242Z,954.75
2022-11-04T00:35:56.189Z,954.78
2022-11-04T00:36:56.145Z,954.81
2022-11-04T00:37:56.080Z,954.82
2022-11-04T00:38:56.036Z,954.83
2022-11-04T00:39:55.971Z,954.85
2022-11-04T00:40:55.914Z,954.84
2022-11-04T00:41:55.880Z,954.79
2022-11-04T00:42:55.802Z,954.84
2022-11-04T00:43:55.754Z,954.86
2022-11-04T00:44:55.697Z,954.83
2022-11-04T00:45:55.643Z,954.89
2022-11-04T00:46:55.585Z,954.93
2022-11-04T00:47:55.550Z,954.93
2022-11-04T00:48:55.498Z,954.91
2022-11-04T00:49:55.425Z,954.60
2022-11-04T00:50:55.369Z,954.74
2022-11-04T00:51:55.314Z,954.68
2022-11-04T00:52:55.275Z,954.66
2022-11-04T00:53:55.295Z,954.65
2022-11-04T00:54:55.149Z,954.60
2022-11-04T00:55:55.097Z,954.62
2022-11-04T00:56:55.041Z,954.50
2022-11-04T00:57:55.003Z,954.52
2022-11-04T00:58:54.933Z,954.50
2022-11-04T00:59:54.877Z,954.52
2022-11-04T01:00:54.876Z,954.52
2022-11-04T01:01:54.869Z,954.56
2022-11-04T01:02:54.731Z,954.51
2022-11-04T01:03:54.667Z,954.47
2022-11-04T01:04:55.414Z,954.50
2022-11-04T01:05:54.552Z,954.54
2022-11-04T01:06:54.496Z,954.56
2022-11-04T01:07:54.456Z,954.50
2022-11-04T01:08:54.388Z,954.48
2022-11-04T01:09:54.338Z,954.42
2022-11-04T01:10:54.278Z,954.44
2022-11-04T01:11:54.224Z,954.44
2022-11-04T01:12:54.190Z,954.38
2022-11-04T01:13:54.122Z,954.37
2022-11-04T01:14:54.069Z,954.38
2022-11-04T01:15:54.021Z,954.39
2022-11-04T01:16:53.952Z,954.41
2022-11-04T01:17:53.910Z,954.47
2022-11-04T01:18:53.861Z,954.40
2022-11-04T01:19:53.788Z,954.34
2022-11-04T01:20:53.736Z,954.29
2022-11-04T01:21:53.685Z,954.30
2022-11-04T01:22:53.627Z,954.25
2022-11-04T01:23:53.587Z,954.27
2022-11-04T01:24:53.534Z,954.20
2022-11-04T01:25:53.463Z,954.27
2022-11-04T01:26:53.412Z,954.30
2022-11-04T01:27:53.372Z,954.37
2022-11-04T01:28:53.302Z,954.35
2022-11-04T01:29:53.254Z,954.39
2022-11-04T01:30:53.194Z,954.40
2022-11-04T01:31:53.163Z,954.43
2022-11-04T01:32:53.084Z,954.50
2022-11-04T01:33:53.031Z,954.57
2022-11-04T01:34:52.978Z,954.57
2022-11-04T01:35:52.925Z,954.51
2022-11-04T01:36:52.870Z,954.51
2022-11-04T01:37:52.827Z,954.53
2022-11-04T01:38:52.761Z,954.55
2022-11-04T01:39:52.707Z,954.43
2022-11-04T01:40:52.654Z,954.47
2022-11-04T01:41:52.650Z,954.52
2022-11-04T01:42:52.559Z,954.54
2022-11-04T01:43:52.493Z,954.51
2022-11-04T01:44:52.435Z,954.48
2022-11-04T01:45:52.381Z,954.58
2022-11-04T01:46:52.326Z,954.47
2022-11-04T01:47:52.287Z,954.53
2022-11-04T02:10:35.742Z,954.87
2022-11-04T02:11:35.677Z,954.90
2022-11-04T02:12:35.619Z,954.90
2022-11-04T02:13:35.577Z,954.87
2022-11-04T02:14:35.528Z,954.95
2022-11-04T02:15:35.455Z,954.87
2022-11-04T02:16:35.400Z,954.90
2022-11-04T02:17:35.352Z,954.92
2022-11-04T02:18:35.293Z,954.92
2022-11-04T02:19:35.252Z,954.96
2022-11-04T02:20:35.185Z,954.91
2022-11-04T02:21:35.129Z,954.93
2022-11-04T02:22:35.092Z,954.92
2022-11-04T02:23:35.024Z,955.01
2022-11-04T02:24:34.968Z,954.93
2022-11-04T02:25:34.914Z,954.82
2022-11-04T02:26:34.860Z,954.81
2022-11-04T02:27:34.822Z,954.86
2022-11-04T02:28:34.764Z,954.87
2022-11-04T02:29:34.697Z,954.78
2022-11-04T02:30:34.667Z,954.84
2022-11-04T02:31:34.587Z,954.82
2022-11-04T02:32:34.534Z,954.80
2022-11-04T02:33:34.492Z,954.80
2022-11-04T02:34:34.443Z,954.79
2022-11-04T02:35:34.373Z,954.83
2022-11-04T02:36:34.320Z,954.85
2022-11-04T02:37:34.263Z,954.80
2022-11-04T02:38:34.209Z,954.81
2022-11-04T02:39:34.182Z,954.84
2022-11-04T02:40:34.101Z,954.87
2022-11-04T02:41:34.046Z,954.92
2022-11-04T02:42:33.995Z,954.95
2022-11-04T02:43:33.939Z,954.97
2022-11-04T02:44:33.888Z,954.98
2022-11-04T02:45:33.844Z,954.94
2022-11-04T02:46:33.779Z,955.01
2022-11-04T02:47:33.724Z,955.07
2022-11-04T02:48:33.686Z,955.05
2022-11-04T02:49:33.614Z,955.15
2022-11-04T02:50:33.594Z,955.12
2022-11-04T02:51:33.506Z,955.13
2022-11-04T02:52:33.453Z,955.07
2022-11-04T02:53:33.398Z,955.03
2022-11-04T02:54:33.347Z,955.08
2022-11-04T02:55:33.305Z,955.06
2022-11-04T02:56:33.238Z,955.03
2022-11-04T02:57:33.180Z,955.02
2022-11-04T02:58:33.127Z,955.06
2022-11-04T02:59:33.072Z,955.09
2022-11-04T03:00:33.033Z,955.05
2022-11-04T03:01:33.105Z,955.01
2022-11-04T03:02:32.969Z,955.00
2022-11-04T03:03:32.859Z,954.98
2022-11-04T03:04:32.814Z,955.02
2022-11-04T03:05:32.750Z,954.98
2022-11-04T03:06:32.696Z,955.07
2022-11-04T03:07:32.657Z,955.16
2022-11-04T03:08:32.599Z,955.12
2022-11-04T03:09:32.530Z,955.11
2022-11-04T03:10:32.479Z,955.09
2022-11-04T03:11:32.435Z,955.11
2022-11-04T03:12:32.368Z,955.19
2022-11-04T03:13:32.317Z,955.24
2022-11-04T03:14:32.259Z,955.17
2022-11-04T03:15:32.211Z,955.21
2022-11-04T03:16:32.166Z,955.19
2022-11-04T03:17:32.104Z,955.20
2022-11-04T03:18:32.057Z,955.20
2022-11-04T03:19:31.989Z,955.18
2022-11-04T03:20:31.944Z,955.26
2022-11-04T03:21:31.881Z,955.32
2022-11-04T03:22:31.841Z,955.28
2022-11-04T03:23:31.772Z,955.25
2022-11-04T03:24:31.716Z,955.22
2022-11-04T03:25:31.677Z,955.35
2022-11-04T03:26:31.609Z,955.30
2022-11-04T03:27:31.559Z,955.27
2022-11-04T03:28:31.514Z,955.26
2022-11-04T03:29:31.446Z,955.31
2022-11-04T03:30:31.393Z,955.39
2022-11-04T03:31:31.342Z,955.47
2022-11-04T03:32:31.286Z,955.38
2022-11-04T03:33:31.241Z,955.45
2022-11-04T03:34:31.174Z,955.47
2022-11-04T03:35:31.120Z,955.50
2022-11-04T03:36:31.087Z,955.43
2022-11-04T03:37:31.008Z,955.58
2022-11-04T03:38:30.955Z,955.54
2022-11-04T03:39:30.905Z,955.51
2022-11-04T03:40:30.848Z,955.50
2022-11-04T03:41:30.810Z,955.49
2022-11-04T03:42:30.750Z,955.48
2022-11-04T03:43:30.682Z,955.43
2022-11-04T03:44:30.628Z,955.43
2022-11-04T03:45:30.574Z,955.47
2022-11-04T03:46:30.542Z,955.52
2022-11-04T03:47:30.492Z,955.56
2022-11-04T03:48:30.410Z,955.57
2022-11-04T03:49:30.357Z,955.60
2022-11-04T03:50:30.302Z,955.66
2022-11-04T03:51:30.250Z,955.70
2022-11-04T03:52:30.194Z,955.65
2022-11-04T03:53:30.175Z,955.66
2022-11-04T03:54:30.090Z,955.67
2022-11-04T03:55:30.030Z,955.66
2022-11-04T03:56:29.974Z,955.69
2022-11-04T03:57:29.921Z,955.73
2022-11-04T03:58:29.869Z,955.75
2022-11-04T03:59:29.841Z,955.70
2022-11-04T04:00:29.760Z,955.70
2022-11-04T04:01:29.869Z,955.67
2022-11-04T04:02:29.650Z,955.69
2022-11-04T04:03:29.598Z,955.72
2022-11-04T04:04:29.542Z,955.73
2022-11-04T04:05:29.506Z,955.74
2022-11-04T04:06:29.435Z,955.76
2022-11-04T04:07:29.379Z,955.78
2022-11-04T04:08:29.326Z,955.73
2022-11-04T04:09:29.269Z,955.72
2022-11-04T04:10:29.247Z,955.70
2022-11-04T04:11:29.162Z,955.63
2022-11-04T04:12:29.104Z,955.65
2022-11-04T04:13:29.050Z,955.65
2022-11-04T04:14:29.012Z,955.56
2022-11-04T04:15:28.942Z,955.53
2022-11-04T04:16:28.908Z,955.52
2022-11-04T04:17:28.831Z,955.54
2022-11-04T04:18:28.780Z,955.57
2022-11-04T04:19:28.724Z,955.53
2022-11-04T04:20:28.672Z,955.58
2022-11-04T04:21:28.643Z,955.65
2022-11-04T04:22:28.559Z,955.66
2022-11-04T04:23:28.512Z,955.62
2022-11-04T04:24:28.454Z,955.64
2022-11-04T04:25:28.398Z,955.68
2022-11-04T04:26:28.373Z,955.71
2022-11-04T04:27:28.290Z,955.74
2022-11-04T04:28:28.250Z,955.87
2022-11-04T04:29:28.183Z,955.83
2022-11-04T04:30:28.130Z,956.03
2022-11-04T04:31:28.073Z,956.13
2022-11-04T04:32:28.034Z,956.23
2022-11-04T04:33:27.985Z,956.23
2022-11-04T04:34:27.909Z,956.24
2022-11-04T04:35:27.854Z,956.21
2022-11-04T04:36:27.801Z,956.13
2022-11-04T04:37:27.763Z,956.09
2022-11-04T04:38:27.691Z,956.08
2022-11-04T04:39:27.640Z,956.09
2022-11-04T04:40:27.587Z,956.03
2022-11-04T04:41:27.523Z,955.94
2022-11-04T04:42:27.495Z,955.85
2022-11-04T04:43:27.423Z,955.79
2022-11-04T04:44:27.368Z,955.77
2022-11-04T04:45:27.309Z,955.67
2022-11-04T04:46:27.254Z,955.64
2022-11-04T04:47:27.203Z,955.62
2022-11-04T04:48:27.169Z,955.62
2022-11-04T04:49:27.091Z,955.59
2022-11-04T04:50:27.036Z,955.62
2022-11-04T04:51:26.991Z,955.66
2022-11-04T04:52:26.931Z,955.74
2022-11-04T04:53:26.899Z,955.80
2022-11-04T04:54:26.821Z,955.87
2022-11-04T04:55:26.763Z,955.95
2022-11-04T04:56:26.710Z,955.98
2022-11-04T04:57:26.655Z,955.99
2022-11-04T04:58:26.634Z,955.98
2022-11-04T04:59:26.544Z,956.03
2022-11-04T05:00:26.526Z,956.04
2022-11-04T05:01:26.539Z,956.00
2022-11-04T05:02:26.417Z,956.06
2022-11-04T05:03:26.329Z,956.07
2022-11-04T05:04:26.299Z,956.11
2022-11-04T05:05:26.218Z,956.10
2022-11-04T05:06:26.167Z,956.18
2022-11-04T05:07:26.108Z,956.12
2022-11-04T05:08:26.112Z,956.17
2022-11-04T05:09:26.003Z,956.12
2022-11-04T05:10:25.962Z,956.10
2022-11-04T05:11:27.225Z,956.08
2022-11-04T05:12:25.836Z,956.06
2022-11-04T05:13:25.780Z,956.03
2022-11-04T05:14:25.727Z,956.05
2022-11-04T05:15:25.702Z,956.10
2022-11-04T05:16:25.626Z,956.04
2022-11-04T05:17:25.563Z,956.00
2022-11-04T05:18:25.507Z,956.07
2022-11-04T05:19:25.457Z,956.07
2022-11-04T05:20:25.401Z,956.13
2022-11-04T05:21:25.371Z,956.12
2022-11-04T05:22:25.300Z,956.17
2022-11-04T05:23:25.236Z,956.19
2022-11-04T05:24:25.182Z,956.19
2022-11-04T05:25:25.129Z,956.19
2022-11-04T05:26:25.097Z,956.21
2022-11-04T05:27:25.017Z,956.17
2022-11-04T05:28:24.964Z,956.18
2022-11-04T05:29:24.908Z,956.20
2022-11-04T05:30:24.853Z,956.16
2022-11-04T05:31:24.801Z,956.13
2022-11-04T05:32:24.771Z,956.14
2022-11-04T05:33:24.691Z,956.18
2022-11-04T05:34:24.633Z,956.16
2022-11-04T05:35:24.581Z,956.12
2022-11-04T05:36:24.527Z,956.15
2022-11-04T05:37:24.470Z,956.14
2022-11-04T05:38:24.434Z,956.21
2022-11-04T05:39:24.362Z,956.19
2022-11-04T05:40:24.311Z,956.24
2022-11-04T05:41:24.253Z,956.30
2022-11-04T05:42:24.198Z,956.35
2022-11-04T05:43:24.160Z,956.37
2022-11-04T05:44:24.086Z,956.35
2022-11-04T05:45:24.033Z,956.31
2022-11-04T05:46:23.978Z,956.25
2022-11-04T05:47:23.924Z,956.23
2022-11-04T05:48:23.884Z,956.18
2022-11-04T05:49:23.824Z,956.18
2022-11-04T05:50:23.762Z,956.21
2022-11-04T05:51:23.749Z,956.18
2022-11-04T05:52:23.650Z,956.21
2022-11-04T05:53:23.651Z,956.27
2022-11-04T05:54:23.539Z,956.23
2022-11-04T05:55:23.494Z,956.25
2022-11-04T05:56:23.434Z,956.21
2022-11-04T05:57:23.378Z,956.18
2022-11-04T05:58:23.344Z,956.22
2022-11-04T05:59:23.265Z,956.25
2022-11-04T06:00:23.213Z,956.25
2022-11-04T06:01:23.203Z,956.30
2022-11-04T06:02:23.182Z,956.26
2022-11-04T06:03:23.047Z,956.28
2022-11-04T06:04:23.025Z,956.26
2022-11-04T06:05:22.938Z,956.24
2022-11-04T06:06:22.886Z,956.27
2022-11-04T06:07:22.834Z,956.28
2022-11-04T06:08:22.777Z,956.26
2022-11-04T06:09:22.719Z,956.24
2022-11-04T06:10:22.683Z,956.27
2022-11-04T06:11:22.614Z,956.33
2022-11-04T06:12:22.556Z,956.33
2022-11-04T06:13:22.502Z,956.38
2022-11-04T06:14:22.447Z,956.43
2022-11-04T06:15:22.422Z,956.38
2022-11-04T06:16:22.340Z,956.36
2022-11-04T06:17:22.284Z,956.40
2022-11-04T06:18:22.229Z,956.33
2022-11-04T06:19:22.173Z,956.28
2022-11-04T06:20:22.146Z,956.19
2022-11-04T06:21:22.066Z,956.11
2022-11-04T06:22:22.007Z,956.09
2022-11-04T06:23:21.954Z,956.13
2022-11-04T06:24:21.897Z,956.18
2022-11-04T06:25:21.845Z,956.27
2022-11-04T06:26:25.375Z,956.27
2022-11-04T06:27:21.733Z,956.33
2022-11-04T06:28:21.682Z,956.27
2022-11-04T06:29:22.471Z,956.30
2022-11-04T06:30:21.573Z,956.28
2022-11-04T06:31:21.515Z,956.26
2022-11-04T06:32:21.478Z,956.22
2022-11-04T06:33:21.405Z,956.24
2022-11-04T06:34:21.352Z,956.26
2022-11-04T06:35:21.298Z,956.27
2022-11-04T06:36:21.288Z,956.32
2022-11-04T06:37:21.217Z,956.42
2022-11-04T06:38:21.139Z,956.45
2022-11-04T06:39:21.076Z,956.49
2022-11-04T06:40:21.023Z,956.53
2022-11-04T06:41:20.965Z,956.57
2022-11-04T06:42:20.915Z,956.63
2022-11-04T06:43:20.893Z,956.66
2022-11-04T06:44:20.803Z,956.65
2022-11-04T06:45:20.765Z,956.64
2022-11-04T06:46:20.692Z,956.67
2022-11-04T06:47:24.575Z,956.65
2022-11-04T06:48:20.594Z,956.66
2022-11-04T06:49:20.547Z,956.65
2022-11-04T06:50:20.473Z,956.67
2022-11-04T06:51:20.435Z,956.69
2022-11-04T06:52:20.360Z,956.66
2022-11-04T06:53:20.307Z,956.70
2022-11-04T06:54:20.290Z,956.71
2022-11-04T06:55:20.200Z,956.74
2022-11-04T06:56:20.172Z,956.77
2022-11-04T06:57:20.088Z,956.80
2022-11-04T06:58:20.036Z,956.78
2022-11-04T06:59:19.983Z,956.80
2022-11-04T07:00:19.945Z,956.81
2022-11-04T07:01:22.076Z,956.84
2022-11-04T07:02:19.958Z,956.87
2022-11-04T07:03:19.776Z,956.82
2022-11-04T07:04:19.713Z,956.78
2022-11-04T07:05:19.684Z,956.74
2022-11-04T07:06:19.610Z,956.70
2022-11-04T07:07:19.543Z,956.75
2022-11-04T07:08:19.495Z,956.76
2022-11-04T07:09:19.432Z,956.80
2022-11-04T07:10:19.377Z,956.78
2022-11-04T07:11:19.347Z,956.79
2022-11-04T07:12:19.265Z,956.79
2022-11-04T07:13:19.211Z,956.79
2022-11-04T07:14:19.192Z,956.80
2022-11-04T07:15:24.647Z,956.79
2022-11-04T07:16:19.046Z,956.81
2022-11-04T07:17:19.018Z,956.84
2022-11-04T07:18:18.939Z,956.91
2022-11-04T07:19:18.885Z,956.96
2022-11-04T07:20:18.829Z,957.03
2022-11-04T07:21:18.777Z,957.06
2022-11-04T07:22:18.750Z,957.14
2022-11-04T07:23:18.662Z,957.13
2022-11-04T07:24:18.632Z,957.14
2022-11-04T07:25:18.553Z,957.13
2022-11-04T07:26:18.501Z,957.17
2022-11-04T07:27:18.442Z,957.16
2022-11-04T07:28:18.409Z,957.23
2022-11-04T07:29:18.330Z,957.27
2022-11-04T07:30:18.280Z,957.30
2022-11-04T07:31:18.242Z,957.40
2022-11-04T07:32:18.171Z,957.39
2022-11-04T07:33:18.139Z,957.33
2022-11-04T07:34:18.061Z,957.37
2022-11-04T07:35:18.002Z,957.35
2022-11-04T07:36:17.954Z,957.37
2022-11-04T07:37:17.894Z,957.39
2022-11-04T07:38:17.839Z,957.42
2022-11-04T07:39:17.803Z,957.43
2022-11-04T07:40:17.731Z,957.39
2022-11-04T07:41:17.672Z,957.40
2022-11-04T07:42:17.618Z,957.38
2022-11-04T07:43:17.562Z,957.44
2022-11-04T07:44:17.533Z,957.41
2022-11-04T07:45:17.451Z,957.42
2022-11-04T07:46:17.421Z,957.42
2022-11-04T07:47:17.342Z,957.41
2022-11-04T07:48:17.287Z,957.41
2022-11-04T07:49:17.233Z,957.48
2022-11-04T07:50:17.303Z,957.40
2022-11-04T07:51:17.121Z,957.40
2022-11-04T07:52:17.066Z,957.40
2022-11-04T07:53:17.009Z,957.40
2022-11-04T07:54:16.957Z,957.37
2022-11-04T07:55:16.901Z,957.38
2022-11-04T07:56:16.866Z,957.36
2022-11-04T07:57:16.791Z,957.38
2022-11-04T07:58:16.734Z,957.35
2022-11-04T07:59:16.737Z,957.29
2022-11-04T08:00:16.745Z,957.26
2022-11-04T08:01:16.684Z,957.22
2022-11-04T08:02:19.700Z,957.17
2022-11-04T08:03:16.533Z,957.14
2022-11-04T08:04:16.406Z,957.13
2022-11-04T08:05:16.346Z,957.16
2022-11-04T08:06:16.296Z,957.18
2022-11-04T08:07:16.285Z,957.19
2022-11-04T08:08:16.183Z,957.17
2022-11-04T08:09:16.166Z,957.18
2022-11-04T08:10:16.078Z,957.13
2022-11-04T08:11:17.651Z,957.14
2022-11-04T08:12:15.964Z,957.12
2022-11-04T08:13:15.940Z,957.13
2022-11-04T08:14:15.852Z,957.11
2022-11-04T08:15:15.803Z,957.14
2022-11-04T08:16:15.744Z,957.14
2022-11-04T08:17:15.690Z,957.16
2022-11-04T08:18:15.635Z,957.12
2022-11-04T08:19:15.596Z,957.14
2022-11-04T08:20:15.530Z,957.13
2022-11-04T08:21:15.479Z,957.10
2022-11-04T08:22:15.414Z,957.10
2022-11-04T08:23:15.364Z,957.08
2022-11-04T08:24:15.331Z,957.08
2022-11-04T08:25:15.266Z,957.05
2022-11-04T08:26:15.191Z,957.07
2022-11-04T08:27:15.137Z,957.07
2022-11-04T08:28:15.082Z,957.07
2022-11-04T08:29:15.039Z,957.05
2022-11-04T08:30:15.098Z,957.09
2022-11-04T08:31:14.913Z,957.04
2022-11-04T08:32:14.863Z,957.03
2022-11-04T08:33:14.804Z,956.99
2022-11-04T08:34:14.753Z,956.98
2022-11-04T08:35:14.698Z,956.96
2022-11-04T08:36:14.671Z,956.93
2022-11-04T08:37:14.582Z,956.94
2022-11-04T08:38:14.530Z,956.93
2022-11-04T08:39:14.480Z,956.98
2022-11-04T08:40:14.426Z,956.99
2022-11-04T08:41:14.382Z,957.02
2022-11-04T08:42:14.310Z,957.03
2022-11-04T08:43:14.256Z,957.03
2022-11-04T08:44:14.207Z,957.05
2022-11-04T08:45:14.149Z,956.97
2022-11-04T08:46:14.113Z,956.99
2022-11-04T08:47:14.035Z,957.01
2022-11-04T08:48:13.980Z,957.01
2022-11-04T08:49:19.524Z,956.95
2022-11-04T08:50:13.869Z,956.96
2022-11-04T08:51:13.819Z,956.99
2022-11-04T08:52:13.800Z,957.01
2022-11-04T08:53:13.711Z,956.98
2022-11-04T08:54:13.653Z,956.95
2022-11-04T08:55:13.599Z,956.94
2022-11-04T08:56:13.548Z,956.89
2022-11-04T08:57:13.515Z,956.87
2022-11-04T08:58:13.442Z,956.86
2022-11-04T08:59:13.383Z,956.87
2022-11-04T09:00:13.325Z,956.93
2022-11-04T09:01:13.420Z,956.94
2022-11-04T09:02:13.310Z,957.00
2022-11-04T09:03:13.299Z,957.07
2022-11-04T09:04:13.160Z,957.09
2022-11-04T09:05:13.056Z,957.13
2022-11-04T09:06:13.009Z,957.10
2022-11-04T09:07:12.944Z,957.18
2022-11-04T09:08:12.925Z,957.16
2022-11-04T09:09:12.839Z,957.21
2022-11-04T09:10:12.780Z,957.19
2022-11-04T09:11:13.504Z,957.23
2022-11-04T09:12:12.671Z,957.25
2022-11-04T09:13:12.827Z,957.31
2022-11-04T09:14:12.584Z,957.33
2022-11-04T09:15:12.592Z,957.36
2022-11-04T09:16:12.456Z,957.37
2022-11-04T09:17:12.401Z,957.39
2022-11-04T09:18:12.345Z,957.43
2022-11-04T09:19:12.318Z,957.39
2022-11-04T09:20:12.240Z,957.44
2022-11-04T09:21:12.185Z,957.40
2022-11-04T09:22:12.214Z,957.43
2022-11-04T09:23:12.332Z,957.44
2022-11-04T09:24:12.023Z,957.44
2022-11-04T09:25:11.997Z,957.45
2022-11-04T09:26:11.913Z,957.38
2022-11-04T09:27:11.859Z,957.38
2022-11-04T09:28:11.803Z,957.40
2022-11-04T09:29:11.858Z,957.41
2022-11-04T09:30:11.695Z,957.43
2022-11-04T09:31:11.662Z,957.44
2022-11-04T09:32:11.588Z,957.46
2022-11-04T09:33:11.837Z,957.47
2022-11-04T09:34:11.477Z,957.49
2022-11-04T09:35:11.424Z,957.54
2022-11-04T09:36:11.398Z,957.50
2022-11-04T09:37:11.315Z,957.55
2022-11-04T09:38:11.350Z,957.51
2022-11-04T09:39:11.207Z,957.46
2022-11-04T09:40:11.157Z,957.47
2022-11-04T09:41:11.096Z,957.41
2022-11-04T09:42:11.059Z,957.43
2022-11-04T09:43:11.390Z,957.39
2022-11-04T09:44:10.938Z,957.39
2022-11-04T09:45:26.272Z,957.35
2022-11-04T09:46:10.823Z,957.32
2022-11-04T09:47:10.914Z,957.30
2022-11-04T09:48:10.719Z,957.30
2022-11-04T09:49:10.661Z,957.28
2022-11-04T09:50:10.606Z,957.29
2022-11-04T09:51:26.260Z,957.32
2022-11-04T09:52:10.519Z,957.30
2022-11-04T09:53:10.854Z,957.30
2022-11-04T09:54:10.486Z,957.29
2022-11-04T09:55:10.335Z,957.29
2022-11-04T09:56:11.253Z,957.28
2022-11-04T09:57:10.226Z,957.28
2022-11-04T09:58:10.312Z,957.26
2022-11-04T09:59:10.115Z,957.23
2022-11-04T10:00:10.063Z,957.23
2022-11-04T10:01:10.070Z,957.22
2022-11-04T10:02:10.050Z,957.24
2022-11-04T10:03:10.235Z,957.19
2022-11-04T10:04:09.872Z,957.16
2022-11-04T10:05:09.791Z,957.19
2022-11-04T10:06:09.739Z,957.23
2022-11-04T10:07:09.685Z,957.22
2022-11-04T10:08:09.629Z,957.28
2022-11-04T10:09:09.592Z,957.30
2022-11-04T10:10:09.600Z,957.33
2022-11-04T10:11:09.468Z,957.32
2022-11-04T10:12:09.430Z,957.35
2022-11-04T10:13:09.747Z,957.34
2022-11-04T10:14:09.335Z,957.33
2022-11-04T10:15:09.249Z,957.35
2022-11-04T10:16:09.199Z,957.45
2022-11-04T10:17:09.141Z,957.43
2022-11-04T10:18:09.088Z,957.47
2022-11-04T10:19:09.037Z,957.44
2022-11-04T10:20:09.000Z,957.40
2022-11-04T10:21:08.927Z,957.36
2022-11-04T10:22:08.870Z,957.38
2022-11-04T10:23:09.140Z,957.39
2022-11-04T10:24:08.759Z,957.38
2022-11-04T10:25:08.709Z,957.43
2022-11-04T10:26:08.801Z,957.42
2022-11-04T10:27:08.602Z,957.42
2022-11-04T10:28:08.553Z,957.41
2022-11-04T10:29:08.493Z,957.39
2022-11-04T10:30:08.443Z,957.42
2022-11-04T10:31:08.405Z,957.40
2022-11-04T10:32:08.330Z,957.33
2022-11-04T10:33:08.653Z,957.39
2022-11-04T10:34:08.224Z,957.39
2022-11-04T10:35:08.172Z,957.35
2022-11-04T10:36:08.136Z,957.33
2022-11-04T10:37:08.055Z,957.33
2022-11-04T10:38:08.010Z,957.29
2022-11-04T10:39:07.949Z,957.22
2022-11-04T10:40:08.005Z,957.25
2022-11-04T10:41:07.872Z,957.24
2022-11-04T10:42:07.870Z,957.23
2022-11-04T10:43:14.526Z,957.22
2022-11-04T10:44:14.524Z,957.23
2022-11-04T10:45:14.525Z,957.23
2022-11-04T10:46:14.525Z,957.21
2022-11-04T10:47:14.578Z,957.19
2022-11-04T10:48:14.025Z,957.24
2022-11-04T10:49:14.025Z,957.24
2022-11-04T10:50:28.408Z,957.23
2022-11-04T10:51:14.025Z,957.24
2022-11-04T10:52:14.837Z,957.29
2022-11-04T10:53:10.299Z,957.30
2022-11-04T10:54:08.032Z,957.23
2022-11-04T10:55:07.088Z,957.27
2022-11-04T10:56:07.122Z,957.26
2022-11-04T10:57:06.984Z,957.20
2022-11-04T10:58:06.942Z,957.20
2022-11-04T10:59:07.258Z,957.28
2022-11-04T11:00:06.819Z,957.21
2022-11-04T11:01:10.019Z,957.20
2022-11-04T11:02:06.775Z,957.17
2022-11-04T11:03:07.079Z,957.20
2022-11-04T11:04:06.603Z,957.16
2022-11-04T11:05:06.551Z,957.16
2022-11-04T11:06:06.494Z,957.16
2022-11-04T11:07:06.442Z,957.14
2022-11-04T11:08:06.404Z,957.13
2022-11-04T11:09:06.356Z,957.11
2022-11-04T11:10:06.277Z,957.09
2022-11-04T11:11:06.225Z,957.07
2022-11-04T11:12:23.290Z,957.09
2022-11-04T11:13:06.357Z,957.09
2022-11-04T11:14:06.064Z,957.08
2022-11-04T11:15:08.657Z,957.11
2022-11-04T11:16:05.966Z,957.17
2022-11-04T11:17:05.907Z,957.17
2022-11-04T11:18:05.876Z,957.15
2022-11-04T11:19:05.799Z,957.12
2022-11-04T11:20:05.740Z,957.16
2022-11-04T11:21:05.695Z,957.11
2022-11-04T11:22:05.635Z,957.08
2022-11-04T11:23:05.596Z,957.07
2022-11-04T11:24:05.549Z,957.07
2022-11-04T11:25:05.475Z,957.03
2022-11-04T11:26:05.424Z,957.08
2022-11-04T11:27:05.371Z,957.08
2022-11-04T11:28:05.362Z,957.11
2022-11-04T11:29:05.284Z,957.10
2022-11-04T11:30:05.210Z,957.12
2022-11-04T11:31:05.162Z,957.11
2022-11-04T11:32:05.105Z,957.08
2022-11-04T11:33:05.055Z,957.13
2022-11-04T11:34:05.023Z,957.14
2022-11-04T11:35:10.743Z,957.11
2022-11-04T11:36:04.908Z,957.12
2022-11-04T11:37:04.844Z,957.07
2022-11-04T11:38:04.788Z,957.09
2022-11-04T11:39:04.764Z,957.09
2022-11-04T11:40:04.683Z,957.10
2022-11-04T11:41:23.897Z,957.11
2022-11-04T11:42:04.582Z,957.10
2022-11-04T11:43:04.537Z,957.09
2022-11-04T11:44:04.481Z,957.11
2022-11-04T11:45:04.437Z,957.09
2022-11-04T11:46:04.369Z,957.09
2022-11-04T11:47:04.319Z,957.11
2022-11-04T11:48:04.261Z,957.10
2022-11-04T11:49:04.210Z,957.10
2022-11-04T11:50:04.182Z,957.12
2022-11-04T11:51:04.108Z,957.14
2022-11-04T11:52:04.053Z,957.15
2022-11-04T11:53:03.998Z,957.17
2022-11-04T11:54:03.950Z,957.13
2022-11-04T11:55:03.893Z,957.16
2022-11-04T11:56:03.873Z,957.16
2022-11-04T11:57:24.998Z,957.15
2022-11-04T12:01:08.997Z,957.10
2022-11-04T12:02:03.781Z,957.08
2022-11-04T12:03:03.740Z,957.09
2022-11-04T12:06:19.185Z,957.07
2022-11-04T12:09:19.902Z,957.03
2022-11-04T12:10:04.772Z,957.08
2022-11-04T12:11:03.059Z,957.07
2022-11-04T12:12:03.025Z,957.04
2022-11-04T12:13:02.947Z,957.06
2022-11-04T12:14:02.893Z,957.03
2022-11-04T12:15:02.843Z,957.04
2022-11-04T12:16:02.789Z,957.02
2022-11-04T12:17:02.737Z,957.01
2022-11-04T12:18:02.721Z,957.00
2022-11-04T12:19:02.630Z,956.99
2022-11-04T12:20:02.580Z,957.00
2022-11-04T12:21:02.524Z,956.99
2022-11-04T12:22:02.477Z,957.00
2022-11-04T12:23:02.420Z,957.00
2022-11-04T12:24:02.390Z,956.95
2022-11-04T12:25:02.319Z,957.00
2022-11-04T12:26:02.267Z,956.95
2022-11-04T12:27:02.215Z,956.99
2022-11-04T12:28:02.163Z,957.02
2022-11-04T12:29:02.146Z,956.98
2022-11-04T12:30:02.061Z,956.98
2022-11-04T12:31:02.022Z,957.00
2022-11-04T12:32:01.946Z,956.97
2022-11-04T12:33:01.893Z,957.01
2022-11-04T12:34:01.848Z,956.98
2022-11-04T12:35:01.809Z,956.99
2022-11-04T12:36:01.737Z,956.99
2022-11-04T12:37:01.701Z,957.01
2022-11-04T12:38:01.631Z,956.97
2022-11-04T12:39:01.578Z,956.98
2022-11-04T12:40:01.554Z,956.99
2022-11-04T12:43:01.371Z,956.97
2022-11-04T12:44:01.317Z,956.93
2022-11-04T12:45:01.267Z,956.89
2022-11-04T12:46:01.230Z,956.88
2022-11-04T12:47:01.156Z,956.90
2022-11-04T12:48:01.127Z,956.96
2022-11-04T12:49:06.911Z,956.95
2022-11-04T12:50:00.998Z,956.91
2022-11-04T12:51:00.972Z,956.93
2022-11-04T12:52:00.902Z,956.91
2022-11-04T12:53:00.840Z,956.94
2022-11-04T12:54:00.826Z,956.93
2022-11-04T12:55:00.733Z,956.96
2022-11-04T12:56:00.689Z,956.95
2022-11-04T12:57:00.674Z,956.97
2022-11-04T12:58:00.585Z,957.03
2022-11-04T12:59:00.525Z,957.00